Time;durP1;ratioP1;P1;durP2;ratioP2;P2;SDS_P1;SDS_P2;PMS_P1;PMS_P2;Temp;Humidity;BMP_temperature;BMP_pressure;BME280_temperature;BME280_humidity;BME280_pressure;Samples;Min_cycle;Max_cycle;Signal;HPM_P1;HPM_P2
2023/06/09 00:01:35;;;;;;;9.85;4.43;;;;;;;20.06;53.19;101349.97;5078626;28;20073;-61
2023/06/09 00:04:06;;;;;;;13.35;4.18;;;;;;;20.03;52.48;101358.09;5078524;28;20039;-62
2023/06/09 00:06:31;;;;;;;9.05;4.10;;;;;;;20.02;52.81;101362.56;5096945;28;20036;-62
2023/06/09 00:08:57;;;;;;;12.13;4.30;;;;;;;19.95;52.17;101350.19;5096421;28;20148;-62
2023/06/09 00:11:23;;;;;;;14.43;4.57;;;;;;;19.98;52.38;101349.25;5096797;28;20035;-62
2023/06/09 00:13:48;;;;;;;11.85;4.43;;;;;;;19.88;52.70;101350.34;5096418;28;20100;-62
2023/06/09 00:16:15;;;;;;;9.75;4.85;;;;;;;19.85;52.27;101355.78;5096647;28;20039;-62
2023/06/09 00:18:41;;;;;;;8.68;4.22;;;;;;;19.82;52.95;101345.97;5096371;28;20036;-62
2023/06/09 00:21:07;;;;;;;9.93;4.22;;;;;;;19.83;53.27;101350.44;5096206;28;20063;-62
2023/06/09 00:23:32;;;;;;;7.53;4.10;;;;;;;19.84;52.31;101349.53;5096289;28;20489;-62
2023/06/09 00:25:58;;;;;;;9.55;4.20;;;;;;;19.81;53.06;101354.94;5096259;28;20046;-62
2023/06/09 00:28:23;;;;;;;9.80;4.15;;;;;;;19.70;52.74;101352.47;5096408;28;20100;-62
2023/06/09 00:30:49;;;;;;;14.10;4.60;;;;;;;19.68;53.11;101348.94;5096495;28;20086;-62
2023/06/09 00:33:14;;;;;;;9.30;4.40;;;;;;;19.67;52.76;101349.84;5096364;28;20466;-62
2023/06/09 00:35:40;;;;;;;10.18;4.68;;;;;;;19.67;52.81;101339.13;5095917;28;20085;-62
2023/06/09 00:38:05;;;;;;;9.55;4.03;;;;;;;19.69;52.68;101349.81;5096174;28;20115;-62
2023/06/09 00:40:30;;;;;;;8.45;4.32;;;;;;;19.72;52.60;101345.28;5096024;28;20481;-62
2023/06/09 00:42:56;;;;;;;9.20;4.22;;;;;;;19.71;53.05;101348.00;5096206;28;20024;-62
2023/06/09 00:45:22;;;;;;;11.52;4.30;;;;;;;19.65;52.61;101348.97;5095751;28;20372;-62
2023/06/09 00:47:47;;;;;;;10.13;4.13;;;;;;;19.67;52.55;101351.66;5095800;28;20028;-62
2023/06/09 00:50:16;;;;;;;13.57;4.60;;;;;;;19.60;52.52;101344.59;5095760;28;20028;-62
2023/06/09 00:52:42;;;;;;;13.77;4.95;;;;;;;19.57;52.81;101348.22;5095758;28;20073;-62
2023/06/09 00:55:09;;;;;;;11.48;4.38;;;;;;;19.60;52.70;101358.88;5095607;28;20025;-62
2023/06/09 00:57:36;;;;;;;9.88;4.50;;;;;;;19.45;52.95;101359.16;5095632;28;20448;-62
2023/06/09 01:00:05;;;;;;;16.00;5.00;;;;;;;19.42;53.09;101348.50;5110711;28;20552;-63
2023/06/09 01:02:31;;;;;;;11.60;5.00;;;;;;;19.40;53.27;101347.63;5116231;28;20027;-63
2023/06/09 01:04:56;;;;;;;14.25;5.07;;;;;;;19.43;53.22;101334.16;5115901;28;20473;-62
2023/06/09 01:07:33;;;;;;;11.80;4.60;;;;;;;19.39;53.61;101338.69;5114939;28;20031;-62
2023/06/09 01:10:09;;;;;;;10.95;4.40;;;;;;;19.37;53.01;101345.91;5115965;28;20024;-62
2023/06/09 01:12:50;;;;;;;12.60;4.70;;;;;;;19.33;53.28;101341.50;5115957;28;20019;-62
2023/06/09 01:15:25;;;;;;;10.77;4.60;;;;;;;19.31;53.56;101342.41;5115863;28;20358;-62
2023/06/09 01:17:54;;;;;;;13.07;4.45;;;;;;;19.26;53.68;101338.03;5115694;28;20086;-62
2023/06/09 01:20:45;;;;;;;9.57;4.70;;;;;;;19.30;53.49;101337.97;5115477;28;20409;-61
2023/06/09 01:23:24;;;;;;;9.75;4.18;;;;;;;19.29;53.35;101322.81;5115601;28;20499;-62
2023/06/09 01:25:52;;;;;;;14.73;4.85;;;;;;;19.26;53.07;101332.66;5116021;28;20043;-62
2023/06/09 01:28:20;;;;;;;10.15;4.30;;;;;;;19.25;53.31;101330.03;5097444;28;20481;-63
2023/06/09 01:30:48;;;;;;;12.27;4.60;;;;;;;19.20;53.21;101327.44;5115370;28;20084;-62
2023/06/09 01:33:25;;;;;;;12.50;5.25;;;;;;;19.26;53.17;101337.16;5115331;28;20465;-62
2023/06/09 01:35:52;;;;;;;9.90;4.60;;;;;;;19.21;53.38;101328.31;5114766;28;20042;-62
2023/06/09 01:38:20;;;;;;;10.60;4.60;;;;;;;19.11;53.76;101324.03;5115046;28;20023;-62
2023/06/09 01:40:46;;;;;;;8.52;4.70;;;;;;;19.08;53.33;101324.06;5114893;28;20488;-62
2023/06/09 01:43:12;;;;;;;11.20;5.07;;;;;;;19.06;53.43;101324.13;5115131;28;20110;-62
2023/06/09 01:45:37;;;;;;;9.25;4.88;;;;;;;19.09;53.58;101325.84;5114961;28;20055;-62
2023/06/09 01:48:22;;;;;;;9.10;4.70;;;;;;;19.01;53.93;101324.19;5115093;28;20094;-62
2023/06/09 01:51:06;;;;;;;9.95;4.40;;;;;;;19.00;53.72;101325.06;5115037;28;20039;-62
2023/06/09 01:53:36;;;;;;;11.85;5.00;;;;;;;18.96;53.81;101315.31;5115016;28;20068;-62
2023/06/09 01:56:10;;;;;;;13.40;4.97;;;;;;;18.98;54.07;101324.22;5115097;28;20016;-62
2023/06/09 01:58:42;;;;;;;10.52;4.55;;;;;;;18.94;54.04;101325.19;5114883;28;20032;-62
2023/06/09 02:01:08;;;;;;;11.65;4.75;;;;;;;18.88;54.12;101327.94;5114860;28;20053;-63
2023/06/09 02:03:37;;;;;;;11.48;4.68;;;;;;;18.74;54.39;101322.81;5114740;28;20110;-62
2023/06/09 02:06:04;;;;;;;11.98;4.63;;;;;;;18.79;54.51;101328.09;5114752;28;20106;-62
2023/06/09 02:08:30;;;;;;;13.48;5.00;;;;;;;18.79;54.03;101328.09;5114437;28;20124;-62
2023/06/09 02:10:56;;;;;;;11.60;4.88;;;;;;;18.69;54.95;101313.97;5114448;28;20540;-62
2023/06/09 02:13:22;;;;;;;11.98;5.20;;;;;;;18.66;54.35;101311.28;5114409;28;20126;-62
2023/06/09 02:15:47;;;;;;;9.02;5.03;;;;;;;18.64;54.43;101301.53;5114380;28;20102;-62
2023/06/09 02:18:15;;;;;;;9.65;5.20;;;;;;;18.55;55.25;101304.38;5113449;28;20485;-62
2023/06/09 02:20:44;;;;;;;10.88;5.05;;;;;;;18.54;54.53;101303.44;5114202;28;20097;-62
2023/06/09 02:23:10;;;;;;;8.27;4.80;;;;;;;18.51;54.85;101304.41;5114117;28;20039;-62
2023/06/09 02:25:36;;;;;;;10.98;4.88;;;;;;;18.49;55.67;101308.00;5114580;28;20035;-62
2023/06/09 02:28:03;;;;;;;11.10;4.85;;;;;;;18.39;55.35;101309.91;5114230;28;20084;-62
2023/06/09 02:30:29;;;;;;;14.27;5.60;;;;;;;18.31;55.85;101302.91;5114299;28;20069;-62
2023/06/09 02:32:55;;;;;;;11.52;5.10;;;;;;;18.25;55.82;101302.09;5114103;28;20381;-62
2023/06/09 02:35:21;;;;;;;9.63;4.75;;;;;;;18.27;55.72;101299.38;5114286;28;20350;-62
2023/06/09 02:37:46;;;;;;;16.50;5.15;;;;;;;18.19;56.51;101301.28;5113973;28;20102;-62
2023/06/09 02:40:12;;;;;;;10.02;5.13;;;;;;;18.17;56.39;101312.00;5114013;28;20468;-62
2023/06/09 02:42:38;;;;;;;12.48;5.00;;;;;;;18.12;56.09;101300.50;5114061;28;20035;-62
2023/06/09 02:45:06;;;;;;;12.13;5.30;;;;;;;18.10;56.44;101296.94;5114150;28;20028;-62
2023/06/09 02:47:31;;;;;;;10.95;5.05;;;;;;;18.12;56.30;101295.13;5113952;28;20028;-62
2023/06/09 02:49:57;;;;;;;10.00;5.20;;;;;;;18.07;56.13;101304.09;5113854;28;20031;-62
2023/06/09 02:52:22;;;;;;;9.80;5.07;;;;;;;18.09;56.76;101299.63;5113844;28;20020;-62
2023/06/09 02:54:48;;;;;;;10.48;5.05;;;;;;;18.00;56.62;101298.84;5113702;28;20032;-62
2023/06/09 02:57:13;;;;;;;13.93;5.43;;;;;;;18.00;56.64;101297.97;5114006;28;20058;-63
2023/06/09 02:59:39;;;;;;;13.20;5.13;;;;;;;17.89;57.04;101303.44;5113898;28;20517;-62
2023/06/09 03:02:06;;;;;;;16.60;5.45;;;;;;;17.80;57.50;101305.34;5113567;28;20030;-62
2023/06/09 03:04:32;;;;;;;11.52;5.25;;;;;;;17.74;57.94;101295.63;5113637;28;20028;-62
2023/06/09 03:06:58;;;;;;;14.77;5.85;;;;;;;17.66;57.93;101298.34;5113871;28;20038;-62
2023/06/09 03:09:23;;;;;;;12.05;5.20;;;;;;;17.61;58.20;101294.84;5113434;28;20028;-62
2023/06/09 03:11:49;;;;;;;10.10;5.30;;;;;;;17.71;58.08;101308.97;5113915;28;20032;-62
2023/06/09 03:14:14;;;;;;;13.25;5.43;;;;;;;17.75;58.18;101311.63;5113734;28;20028;-63
2023/06/09 03:16:40;;;;;;;15.30;5.18;;;;;;;17.69;58.74;101308.13;5113364;28;20114;-62
2023/06/09 03:19:07;;;;;;;13.38;5.07;;;;;;;17.71;58.52;101303.63;5113721;28;20020;-62
2023/06/09 03:21:35;;;;;;;15.13;5.18;;;;;;;17.59;58.46;101306.44;5113443;28;20378;-62
2023/06/09 03:24:04;;;;;;;12.52;5.25;;;;;;;17.54;58.96;101303.81;5113245;28;20380;-62
2023/06/09 03:26:29;;;;;;;9.90;5.25;;;;;;;17.51;59.26;101306.50;5113416;28;20028;-62
2023/06/09 03:28:55;;;;;;;10.45;5.32;;;;;;;17.43;59.30;101311.03;5112846;28;20031;-62
2023/06/09 03:31:20;;;;;;;12.57;5.30;;;;;;;17.45;58.94;101303.91;5095400;28;20024;-62
2023/06/09 03:33:46;;;;;;;12.27;5.10;;;;;;;17.44;58.90;101305.69;5113346;28;20024;-63
2023/06/09 03:36:11;;;;;;;13.45;5.60;;;;;;;17.39;59.35;101304.88;5113276;28;20055;-62
2023/06/09 03:38:37;;;;;;;14.65;5.43;;;;;;;17.51;59.43;101304.75;5113374;28;20058;-62
2023/06/09 03:41:05;;;;;;;13.63;5.38;;;;;;;17.48;59.24;101311.91;5113550;28;20472;-62
2023/06/09 03:43:31;;;;;;;13.45;5.30;;;;;;;17.51;59.28;101328.78;5113119;28;20059;-62
2023/06/09 03:45:56;;;;;;;11.63;5.50;;;;;;;17.55;58.99;101331.41;5113224;28;20059;-62
2023/06/09 03:48:22;;;;;;;10.65;5.35;;;;;;;17.51;59.14;101328.78;5113187;28;20028;-62
2023/06/09 03:50:47;;;;;;;11.02;5.15;;;;;;;17.48;59.37;101342.16;5113252;28;20035;-63
2023/06/09 03:53:12;;;;;;;10.25;5.15;;;;;;;17.46;59.66;101335.94;5113282;28;20055;-62
2023/06/09 03:55:38;;;;;;;10.48;5.45;;;;;;;17.48;59.49;101333.28;5113080;28;20028;-62
2023/06/09 03:58:04;;;;;;;14.60;5.50;;;;;;;17.47;59.48;101331.47;5113399;28;20024;-62
2023/06/09 04:00:30;;;;;;;11.55;5.13;;;;;;;17.52;59.59;101329.69;5094841;28;20028;-62
2023/06/09 04:02:55;;;;;;;13.07;5.80;;;;;;;17.51;59.37;101331.47;5112978;28;20089;-62
2023/06/09 04:05:22;;;;;;;13.93;5.75;;;;;;;17.50;59.52;101331.47;5112936;28;20134;-62
2023/06/09 04:07:47;;;;;;;13.23;5.50;;;;;;;17.43;59.95;101330.66;5112785;28;20028;-62
2023/06/09 04:10:13;;;;;;;12.55;5.90;;;;;;;17.35;60.26;101337.84;5112701;28;20064;-62
2023/06/09 04:12:41;;;;;;;13.80;5.55;;;;;;;17.44;60.03;101336.88;5112721;28;20024;-62
2023/06/09 04:15:08;;;;;;;13.45;6.25;;;;;;;17.45;59.95;101333.28;5112972;28;20472;-62
2023/06/09 04:17:34;;;;;;;15.32;5.80;;;;;;;17.48;59.77;101328.81;5113174;28;20039;-62
2023/06/09 04:19:59;;;;;;;10.50;6.28;;;;;;;17.49;59.97;101332.38;5113209;28;20036;-62
2023/06/09 04:22:24;;;;;;;15.15;5.75;;;;;;;17.48;59.84;101335.94;5112760;28;20107;-62
2023/06/09 04:24:50;;;;;;;9.90;5.40;;;;;;;17.47;60.24;101331.47;5113028;28;20031;-62
2023/06/09 04:27:19;;;;;;;13.23;6.10;;;;;;;17.50;60.24;101343.03;5113148;28;20023;-61
2023/06/09 04:29:45;;;;;;;13.13;6.30;;;;;;;17.52;60.19;101341.25;5094804;28;20388;-62
2023/06/09 04:32:11;;;;;;;12.63;5.97;;;;;;;17.43;60.18;101343.09;5112781;28;20610;-62
2023/06/09 04:34:38;;;;;;;12.27;5.93;;;;;;;17.50;59.99;101343.03;5112815;28;20087;-62
2023/06/09 04:37:04;;;;;;;16.08;5.88;;;;;;;17.48;61.12;101346.63;5112939;28;20157;-62
2023/06/09 04:39:30;;;;;;;13.85;5.85;;;;;;;17.57;60.46;101348.31;5112626;28;20569;-62
2023/06/09 04:41:56;;;;;;;18.33;5.80;;;;;;;17.50;60.83;101339.47;5114964;28;20055;-61
2023/06/09 04:44:22;;;;;;;13.35;6.00;;;;;;;17.53;60.85;101343.00;5116300;28;20019;-62
2023/06/09 04:46:49;;;;;;;13.05;6.03;;;;;;;17.62;60.22;101342.03;5116518;28;20106;-62
2023/06/09 04:49:15;;;;;;;14.20;6.03;;;;;;;17.70;60.50;101345.50;5116207;28;20538;-63
2023/06/09 04:51:47;;;;;;;13.05;5.97;;;;;;;17.71;60.14;101349.94;5116118;28;20358;-62
2023/06/09 04:54:16;;;;;;;18.42;6.30;;;;;;;17.72;60.48;101349.03;5116075;28;20023;-62
2023/06/09 04:56:43;;;;;;;15.88;5.85;;;;;;;17.79;60.45;101349.91;5116273;28;20429;-62
2023/06/09 04:59:11;;;;;;;12.95;5.95;;;;;;;17.84;60.23;101342.72;5116019;28;20024;-62
2023/06/09 05:01:38;;;;;;;13.68;5.78;;;;;;;17.90;60.51;101341.75;5116046;28;20019;-62
2023/06/09 05:04:06;;;;;;;16.02;6.07;;;;;;;17.91;60.48;101341.75;5116038;28;20039;-62
2023/06/09 05:06:31;;;;;;;12.27;5.88;;;;;;;17.98;60.04;101351.44;5115957;28;20040;-62
2023/06/09 05:08:57;;;;;;;16.33;6.18;;;;;;;18.04;60.10;101350.50;5115725;28;20104;-63
2023/06/09 05:11:22;;;;;;;13.10;5.93;;;;;;;18.11;60.22;101353.97;5116079;28;20036;-62
2023/06/09 05:13:48;;;;;;;12.43;5.63;;;;;;;18.18;59.97;101345.00;5115777;28;20031;-62
2023/06/09 05:16:15;;;;;;;13.90;6.22;;;;;;;18.24;59.84;101352.91;5115794;28;20028;-62
2023/06/09 05:18:42;;;;;;;14.75;5.78;;;;;;;18.40;59.65;101353.63;5115890;28;20119;-62
2023/06/09 05:21:07;;;;;;;12.90;6.13;;;;;;;18.43;59.28;101345.56;5115436;28;20088;-63
2023/06/09 05:23:33;;;;;;;14.60;6.22;;;;;;;18.52;59.10;101358.81;5115695;28;20540;-62
2023/06/09 05:25:59;;;;;;;11.65;6.07;;;;;;;18.67;58.67;101355.94;5115750;28;20032;-62
2023/06/09 05:28:25;;;;;;;13.32;6.40;;;;;;;18.77;58.58;101356.69;5115596;28;20475;-62
2023/06/09 05:30:51;;;;;;;15.60;6.85;;;;;;;18.81;58.42;101354.88;5115401;28;20485;-62
2023/06/09 05:33:16;;;;;;;13.93;6.00;;;;;;;18.98;58.52;101361.72;5115422;28;20034;-62
2023/06/09 05:35:42;;;;;;;14.38;6.82;;;;;;;19.15;58.10;101366.81;5115448;28;20027;-62
2023/06/09 05:38:07;;;;;;;14.73;7.20;;;;;;;19.32;57.27;101361.19;5115292;28;20031;-62
2023/06/09 05:40:33;;;;;;;19.85;6.88;;;;;;;19.45;57.99;101364.53;5115072;28;20027;-62
2023/06/09 05:42:58;;;;;;;18.23;6.57;;;;;;;19.60;57.02;101361.56;5115021;28;20101;-62
2023/06/09 05:45:24;;;;;;;17.00;6.80;;;;;;;19.73;57.06;101367.59;5114996;28;20063;-62
2023/06/09 05:47:50;;;;;;;17.33;7.25;;;;;;;19.83;56.66;101362.94;5115326;28;20027;-62
2023/06/09 05:50:16;;;;;;;15.93;7.05;;;;;;;19.90;55.74;101361.91;5115053;28;20031;-61
2023/06/09 05:52:42;;;;;;;21.95;7.10;;;;;;;19.98;56.03;101365.34;5114910;28;20027;-62
2023/06/09 05:55:08;;;;;;;16.63;6.90;;;;;;;20.05;56.34;101360.75;5114950;28;20119;-62
2023/06/09 05:57:33;;;;;;;16.98;7.35;;;;;;;20.19;56.14;101359.53;5097044;28;20027;-62
2023/06/09 06:00:00;;;;;;;17.95;7.47;;;;;;;20.35;55.73;101356.53;5114682;28;20020;-62
2023/06/09 06:02:27;;;;;;;18.83;7.22;;;;;;;20.50;55.47;101356.22;5114793;28;20381;-62
2023/06/09 06:04:52;;;;;;;15.90;7.68;;;;;;;20.55;55.34;101357.00;5115016;28;20034;-62
2023/06/09 06:07:20;;;;;;;15.82;7.03;;;;;;;20.70;54.83;101356.66;5114719;28;20031;-62
2023/06/09 06:09:45;;;;;;;18.00;7.60;;;;;;;20.73;55.00;101355.72;5114501;28;20481;-62
2023/06/09 06:12:11;;;;;;;16.75;7.20;;;;;;;20.82;54.95;101350.13;5114586;28;20028;-62
2023/06/09 06:14:36;;;;;;;17.27;8.02;;;;;;;20.94;54.21;101354.31;5114743;28;20031;-62
2023/06/09 06:17:02;;;;;;;24.48;7.68;;;;;;;20.99;54.37;101349.72;5114616;28;20028;-62
2023/06/09 06:19:27;;;;;;;15.10;7.60;;;;;;;21.04;54.18;101347.81;5114697;28;20476;-62
2023/06/09 06:21:53;;;;;;;17.52;7.30;;;;;;;21.20;54.44;101357.25;5114191;28;20048;-62
2023/06/09 06:24:18;;;;;;;18.27;7.72;;;;;;;21.29;54.20;101360.66;5114326;28;20032;-62
2023/06/09 06:26:43;;;;;;;17.13;7.40;;;;;;;21.47;53.72;101353.00;5114355;28;20074;-62
2023/06/09 06:29:09;;;;;;;15.80;7.95;;;;;;;21.47;54.02;101352.13;5096036;28;20407;-62
2023/06/09 06:31:34;;;;;;;15.07;7.43;;;;;;;21.64;53.60;101355.25;5114591;28;20028;-63
2023/06/09 06:34:00;;;;;;;18.48;7.07;;;;;;;21.81;53.11;101356.59;5114197;28;20495;-62
2023/06/09 06:36:28;;;;;;;15.27;7.18;;;;;;;22.04;53.39;101364.91;5095851;28;20023;-62
2023/06/09 06:38:53;;;;;;;18.50;7.80;;;;;;;22.27;52.36;101360.69;5113950;28;20020;-62
2023/06/09 06:41:19;;;;;;;15.45;7.90;;;;;;;22.42;51.66;101358.44;5114056;28;20035;-62
2023/06/09 06:43:45;;;;;;;15.93;8.02;;;;;;;22.49;51.03;101356.44;5114097;28;20050;-62
2023/06/09 06:46:11;;;;;;;15.90;7.93;;;;;;;22.64;51.50;101355.06;5114019;28;20043;-62
2023/06/09 06:48:38;;;;;;;14.93;8.60;;;;;;;22.69;51.18;101358.50;5113824;28;20484;-62
2023/06/09 06:51:06;;;;;;;17.55;8.20;;;;;;;22.89;50.77;101347.97;5113915;28;20061;-62
2023/06/09 06:53:33;;;;;;;19.98;7.97;;;;;;;23.12;50.67;101351.75;5114090;28;20027;-62
2023/06/09 06:55:59;;;;;;;17.52;8.45;;;;;;;23.32;50.11;101343.00;5113703;28;20027;-62
2023/06/09 06:58:27;;;;;;;18.80;8.55;;;;;;;23.39;49.57;101342.75;5095363;28;20106;-62
2023/06/09 07:00:55;;;;;;;21.95;8.05;;;;;;;23.59;49.41;101351.94;5113738;28;20023;-61
2023/06/09 07:03:24;;;;;;;18.17;8.38;;;;;;;23.64;48.85;101358.06;5113296;28;20028;-62
2023/06/09 07:05:50;;;;;;;17.35;8.05;;;;;;;23.78;49.04;101344.13;5113774;28;20046;-62
2023/06/09 07:08:16;;;;;;;16.40;8.43;;;;;;;23.92;48.65;101358.88;5113201;28;20024;-62
2023/06/09 07:10:41;;;;;;;14.18;7.80;;;;;;;24.11;48.17;101350.06;5113586;28;20072;-62
2023/06/09 07:13:07;;;;;;;18.63;8.57;;;;;;;24.20;47.59;101353.34;5113598;28;20084;-62
2023/06/09 07:15:32;;;;;;;18.70;8.80;;;;;;;24.18;47.59;101357.91;5113318;28;20469;-62
2023/06/09 07:17:57;;;;;;;18.38;8.55;;;;;;;24.37;47.83;101350.03;5113610;28;20030;-62
2023/06/09 07:20:23;;;;;;;17.60;8.52;;;;;;;24.60;47.22;101353.63;5113431;28;20071;-62
2023/06/09 07:22:51;;;;;;;16.48;8.30;;;;;;;24.79;46.83;101356.47;5113164;28;20519;-62
2023/06/09 07:25:17;;;;;;;15.38;8.25;;;;;;;24.87;46.24;101365.16;5113320;28;20473;-62
2023/06/09 07:27:42;;;;;;;19.52;8.48;;;;;;;25.05;45.83;101358.13;5113375;28;20077;-61
2023/06/09 07:30:08;;;;;;;15.75;8.15;;;;;;;25.22;45.74;101359.22;5113544;28;20492;-62
2023/06/09 07:32:33;;;;;;;19.58;8.52;;;;;;;25.39;45.24;101355.78;5113273;28;20362;-62
2023/06/09 07:34:59;;;;;;;15.32;7.65;;;;;;;25.78;45.09;101356.84;5113114;28;20032;-62
2023/06/09 07:37:25;;;;;;;18.25;8.30;;;;;;;26.00;44.32;101354.09;5112594;28;20054;-62
2023/06/09 07:39:50;;;;;;;15.07;8.35;;;;;;;26.20;43.42;101364.84;5112889;28;20028;-63
2023/06/09 07:42:16;;;;;;;14.15;8.55;;;;;;;26.38;44.83;101361.31;5113056;28;20027;-63
2023/06/09 07:44:41;;;;;;;20.95;8.43;;;;;;;26.52;42.37;101357.09;5112896;28;20114;-65
2023/06/09 07:47:07;;;;;;;17.45;7.80;;;;;;;26.65;41.87;101355.56;5113378;28;20039;-62
2023/06/09 07:49:32;;;;;;;17.75;7.57;;;;;;;26.73;42.38;101350.66;5113317;28;20055;-62
2023/06/09 07:51:59;;;;;;;13.27;8.13;;;;;;;26.70;42.51;101351.66;5113049;28;20032;-62
2023/06/09 07:54:24;;;;;;;13.82;7.72;;;;;;;26.97;42.51;101345.84;5113358;28;20068;-62
2023/06/09 07:56:50;;;;;;;15.82;8.00;;;;;;;27.24;42.04;101351.75;5112711;28;20118;-62
2023/06/09 07:59:19;;;;;;;15.13;8.10;;;;;;;27.47;41.24;101347.84;5096707;28;20385;-62
2023/06/09 08:01:45;;;;;;;16.48;8.32;;;;;;;27.62;41.73;101338.91;5092268;28;20035;-62
2023/06/09 08:04:10;;;;;;;14.02;8.25;;;;;;;27.76;41.14;101342.78;5092508;28;20028;-62
2023/06/09 08:06:36;;;;;;;15.48;8.18;;;;;;;28.01;39.83;101340.50;5092468;28;20024;-62
2023/06/09 08:09:01;;;;;;;14.52;8.52;;;;;;;27.88;40.81;101340.28;5092233;28;20059;-62
2023/06/09 08:11:26;;;;;;;17.13;7.68;;;;;;;28.05;41.25;101341.19;5092538;28;20539;-62
2023/06/09 08:13:52;;;;;;;15.48;8.20;;;;;;;28.29;39.34;101333.53;5092298;28;20040;-62
2023/06/09 08:16:18;;;;;;;16.58;7.82;;;;;;;28.49;39.28;101340.63;5095271;28;20024;-63
2023/06/09 08:18:43;;;;;;;12.52;8.10;;;;;;;28.40;38.31;101334.72;5096285;28;20024;-62
2023/06/09 08:21:08;;;;;;;14.95;8.23;;;;;;;28.47;39.41;101343.41;5095649;28;20024;-62
2023/06/09 08:23:34;;;;;;;15.15;8.10;;;;;;;28.59;39.61;101339.13;5095768;28;20040;-62
2023/06/09 08:26:00;;;;;;;17.67;8.13;;;;;;;28.69;38.97;101337.63;5096013;28;20032;-62
2023/06/09 08:28:25;;;;;;;14.30;7.90;;;;;;;28.87;38.51;101330.25;5096247;28;20115;-62
2023/06/09 08:30:51;;;;;;;17.15;7.53;;;;;;;29.18;38.23;101329.38;5096029;28;20378;-62
2023/06/09 08:33:16;;;;;;;13.43;7.63;;;;;;;29.34;37.29;101337.50;5077874;28;20039;-62
2023/06/09 08:35:42;;;;;;;15.50;7.90;;;;;;;29.29;36.53;101328.69;5095682;28;20032;-61
2023/06/09 08:38:07;;;;;;;15.93;8.02;;;;;;;29.60;36.07;101333.22;5095673;28;20039;-62
2023/06/09 08:40:34;;;;;;;17.50;7.75;;;;;;;29.78;35.78;101337.53;5095570;28;20028;-62
2023/06/09 08:43:02;;;;;;;17.65;8.35;;;;;;;29.79;35.27;101333.81;5096132;28;20040;-62
2023/06/09 08:45:31;;;;;;;15.00;7.88;;;;;;;29.72;35.89;101334.28;5095673;28;20032;-62
2023/06/09 08:47:59;;;;;;;15.75;8.43;;;;;;;29.74;36.54;101335.09;5095662;28;20107;-61
2023/06/09 08:50:28;;;;;;;14.10;8.07;;;;;;;30.06;35.89;101333.06;5095613;28;20105;-62
2023/06/09 08:52:55;;;;;;;12.88;8.15;;;;;;;30.25;34.96;101336.41;5095557;28;20405;-63
2023/06/09 08:55:21;;;;;;;13.05;7.85;;;;;;;30.11;34.70;101339.13;5095793;28;20471;-62
2023/06/09 08:57:48;;;;;;;15.20;7.38;;;;;;;30.21;34.13;101328.53;5095525;28;20085;-62
2023/06/09 09:00:15;;;;;;;15.90;8.02;;;;;;;30.00;35.20;101328.88;5095490;28;20028;-62
2023/06/09 09:02:42;;;;;;;12.35;8.20;;;;;;;30.28;34.22;101324.41;5093601;28;20020;-62
2023/06/09 09:05:07;;;;;;;12.02;6.90;;;;;;;30.58;34.21;101327.03;5095105;28;20035;-62
2023/06/09 09:07:34;;;;;;;15.80;7.95;;;;;;;30.72;33.86;101328.84;5095254;28;20024;-62
2023/06/09 09:09:59;;;;;;;11.15;7.63;;;;;;;30.83;33.64;101318.97;5095030;28;20035;-62
2023/06/09 09:12:25;;;;;;;12.70;7.30;;;;;;;30.79;33.91;101313.84;5095438;28;20111;-62
2023/06/09 09:14:50;;;;;;;14.32;7.82;;;;;;;30.98;33.11;101325.28;5095236;28;20057;-62
2023/06/09 09:17:15;;;;;;;12.50;7.68;;;;;;;31.22;33.95;101321.84;5095391;28;20024;-62
2023/06/09 09:19:47;;;;;;;10.65;7.05;;;;;;;31.27;32.46;101327.91;5095157;28;20470;-62
2023/06/09 09:22:13;;;;;;;11.57;7.47;;;;;;;31.18;32.04;101313.91;5102708;28;20040;-61
2023/06/09 09:24:45;;;;;;;14.25;7.53;;;;;;;31.18;32.06;101316.63;5095207;28;20035;-62
2023/06/09 09:27:19;;;;;;;13.75;7.68;;;;;;;31.25;33.48;101308.88;5094128;28;20478;-62
2023/06/09 09:29:46;;;;;;;12.57;7.43;;;;;;;31.41;32.34;101309.59;5094947;28;20028;-62
2023/06/09 09:32:12;;;;;;;14.07;6.80;;;;;;;31.60;32.22;101305.56;5093301;28;20107;-62
2023/06/09 09:34:41;;;;;;;9.95;7.00;;;;;;;31.74;31.83;101293.69;5094669;28;20046;-62
2023/06/09 09:37:16;;;;;;;15.70;7.72;;;;;;;31.74;32.21;101310.09;5094495;28;20102;-62
2023/06/09 09:39:51;;;;;;;14.10;6.93;;;;;;;32.17;31.60;101289.63;5094906;28;20031;-62
2023/06/09 09:42:17;;;;;;;13.30;6.97;;;;;;;32.31;31.41;101287.75;5094555;28;20027;-62
2023/06/09 09:44:46;;;;;;;14.70;7.57;;;;;;;32.24;31.03;101295.50;5094545;28;20085;-63
2023/06/09 09:47:13;;;;;;;11.65;6.82;;;;;;;32.45;30.57;101290.34;5094593;28;20039;-62
2023/06/09 09:49:55;;;;;;;20.05;7.20;;;;;;;32.56;31.50;101298.66;5094557;28;20035;-62
2023/06/09 09:52:31;;;;;;;14.55;7.30;;;;;;;32.71;29.96;101293.88;5094463;28;20024;-63
2023/06/09 09:54:59;;;;;;;14.13;7.22;;;;;;;32.88;30.11;101290.72;5094549;28;20038;-62
2023/06/09 09:57:29;;;;;;;10.93;7.47;;;;;;;32.96;29.58;101281.97;5094409;28;20031;-62
2023/06/09 09:59:56;;;;;;;13.02;7.72;;;;;;;33.06;30.04;101284.88;5094383;28;20073;-62
2023/06/09 10:02:26;;;;;;;10.45;6.70;;;;;;;33.21;28.37;101291.91;5094644;28;20061;-62
2023/06/09 10:04:56;;;;;;;14.25;7.13;;;;;;;33.37;29.31;101281.50;5094614;28;20107;-62
2023/06/09 10:07:26;;;;;;;9.15;6.80;;;;;;;33.09;29.04;101290.13;5094594;28;20116;-62
2023/06/09 10:09:52;;;;;;;11.63;6.22;;;;;;;33.59;28.44;101279.84;5094293;28;20020;-62
2023/06/09 10:12:22;;;;;;;16.95;6.80;;;;;;;33.89;28.11;101285.63;5094419;28;20016;-62
2023/06/09 10:14:48;;;;;;;12.15;6.93;;;;;;;33.93;28.29;101283.50;5094346;28;20401;-62
2023/06/09 10:17:17;;;;;;;17.20;7.10;;;;;;;33.83;27.21;101280.63;5093973;28;20032;-62
2023/06/09 10:19:43;;;;;;;11.75;8.02;;;;;;;33.82;27.86;101286.22;5094028;28;20099;-62
2023/06/09 10:22:10;;;;;;;11.68;6.97;;;;;;;34.10;28.54;101274.81;5093584;28;20100;-62
2023/06/09 10:24:36;;;;;;;9.27;7.28;;;;;;;34.20;28.13;101277.66;5093834;28;20027;-62
2023/06/09 10:27:04;;;;;;;13.52;7.82;;;;;;;34.21;27.10;101273.91;5093840;28;20469;-61
2023/06/09 10:29:29;;;;;;;13.18;7.53;;;;;;;34.43;26.94;101272.13;5093641;28;20113;-61
2023/06/09 10:31:57;;;;;;;14.55;6.72;;;;;;;34.51;26.88;101280.63;5093622;28;20105;-62
2023/06/09 10:34:24;;;;;;;15.85;7.03;;;;;;;34.29;27.42;101262.31;5093530;28;20024;-62
2023/06/09 10:36:53;;;;;;;13.45;7.32;;;;;;;34.49;27.02;101269.81;5093796;28;20034;-62
2023/06/09 10:39:22;;;;;;;11.48;6.60;;;;;;;34.41;27.86;101264.03;5092421;28;20016;-63
2023/06/09 10:41:59;;;;;;;9.88;6.40;;;;;;;34.50;27.48;101256.94;5093688;28;20117;-62
2023/06/09 10:44:28;;;;;;;10.00;6.30;;;;;;;34.64;26.89;101259.41;5093755;28;20038;-62
2023/06/09 10:46:54;;;;;;;11.63;6.72;;;;;;;34.68;26.51;101262.75;5093471;28;20064;-62
2023/06/09 10:49:25;;;;;;;12.43;7.03;;;;;;;34.59;26.40;101256.16;5075233;28;20039;-62
2023/06/09 10:51:54;;;;;;;11.98;6.50;;;;;;;34.61;25.75;101249.56;5093700;28;20036;-62
2023/06/09 10:54:25;;;;;;;9.50;5.82;;;;;;;34.78;25.77;101247.25;5093429;28;20554;-62
2023/06/09 10:57:00;;;;;;;10.30;6.20;;;;;;;34.90;25.69;101243.44;5093355;28;20576;-62
2023/06/09 10:59:25;;;;;;;11.43;6.45;;;;;;;34.70;25.40;101247.03;5093020;28;20032;-63
2023/06/09 11:02:02;;;;;;;10.30;6.32;;;;;;;34.82;25.05;101255.13;5093198;28;20024;-62
2023/06/09 11:04:49;;;;;;;7.57;5.50;;;;;;;34.71;24.39;101252.38;5093306;28;20494;-62
2023/06/09 11:07:21;;;;;;;12.05;6.40;;;;;;;34.39;25.98;101247.72;5093206;28;20110;-62
2023/06/09 11:09:46;;;;;;;11.90;5.97;;;;;;;34.31;25.92;101239.25;5092825;28;20032;-62
2023/06/09 11:12:24;;;;;;;9.18;5.43;;;;;;;34.77;25.50;101237.25;5093053;28;20401;-62
2023/06/09 11:15:10;;;;;;;10.38;5.13;;;;;;;34.77;25.93;101259.22;5092779;28;20066;-62
2023/06/09 11:17:40;;;;;;;11.13;5.70;;;;;;;34.33;25.46;101250.09;5092854;28;20073;-62
2023/06/09 11:20:20;;;;;;;10.57;5.90;;;;;;;34.10;25.43;101241.91;5092809;28;20497;-62